Time;durP1;ratioP1;P1;durP2;ratioP2;P2;SDS_P1;SDS_P2;PMS_P1;PMS_P2;Temp;Humidity;BMP_temperature;BMP_pressure;BME280_temperature;BME280_humidity;BME280_pressure;Samples;Min_cycle;Max_cycle;Signal;HPM_P1;HPM_P2
2023/08/23 00:00:38;;;;;;;18.10;13.57;;;;;;;27.62;93.83;99994.72;5006507;28;20061;-55
2023/08/23 00:03:09;;;;;;;22.03;14.87;;;;;;;27.48;93.33;99967.31;4999966;28;20041;-57
2023/08/23 00:05:43;;;;;;;19.90;14.30;;;;;;;27.62;92.88;99983.97;5009377;28;20053;-55
2023/08/23 00:08:14;;;;;;;20.20;14.33;;;;;;;27.69;92.42;99974.38;5000381;28;20124;-55
2023/08/23 00:10:46;;;;;;;22.97;14.57;;;;;;;27.88;91.88;99969.03;5013974;28;20073;-56
2023/08/23 00:13:16;;;;;;;21.77;14.87;;;;;;;28.13;92.75;99985.47;5007456;28;20411;-55
2023/08/23 00:15:47;;;;;;;20.40;14.07;;;;;;;28.08;90.41;99995.81;5006952;28;20357;-55
2023/08/23 00:18:17;;;;;;;17.57;14.10;;;;;;;28.01;90.52;99989.31;4996256;28;20125;-57
2023/08/23 00:20:50;;;;;;;20.13;15.07;;;;;;;27.74;90.18;99982.84;5005710;28;20053;-56
2023/08/23 00:23:20;;;;;;;21.70;15.13;;;;;;;27.82;91.26;100007.16;4995219;28;20122;-55
2023/08/23 00:25:51;;;;;;;24.97;15.33;;;;;;;27.86;91.89;100008.59;5009309;28;20069;-55
2023/08/23 00:28:21;;;;;;;20.27;14.70;;;;;;;27.98;91.54;100003.03;5014609;28;20456;-56
2023/08/23 00:30:52;;;;;;;20.07;14.53;;;;;;;28.01;92.07;100000.94;5009504;28;20132;-55
2023/08/23 00:33:24;;;;;;;21.73;14.67;;;;;;;27.99;91.17;100002.06;4980856;28;20057;-56
2023/08/23 00:35:56;;;;;;;18.13;14.53;;;;;;;27.96;90.68;100001.38;5001350;28;20041;-55
2023/08/23 00:38:27;;;;;;;17.27;13.43;;;;;;;28.00;91.00;100009.13;5005683;28;20045;-55
2023/08/23 00:40:58;;;;;;;18.50;13.63;;;;;;;27.98;90.40;100005.72;4996607;28;20054;-56
2023/08/23 00:43:28;;;;;;;18.00;12.90;;;;;;;28.01;90.42;100013.50;5005848;28;20403;-55
2023/08/23 00:46:00;;;;;;;19.30;13.80;;;;;;;27.98;90.23;100016.47;4995712;28;20065;-56
2023/08/23 00:48:31;;;;;;;17.90;13.83;;;;;;;27.95;91.31;100013.06;5005884;28;20042;-56
2023/08/23 00:51:04;;;;;;;16.83;13.37;;;;;;;27.94;89.64;100005.19;4996125;28;20403;-55
2023/08/23 00:53:34;;;;;;;16.07;13.67;;;;;;;28.10;89.05;100015.31;5024569;28;20080;-57
2023/08/23 00:56:06;;;;;;;17.37;12.47;;;;;;;28.13;86.94;100020.41;5015734;28;20045;-57
2023/08/23 00:58:41;;;;;;;16.53;12.70;;;;;;;28.14;85.87;100019.44;5025560;28;20041;-57
2023/08/23 01:01:11;;;;;;;16.17;12.63;;;;;;;28.25;84.39;100019.25;5015154;28;20495;-56
2023/08/23 01:03:42;;;;;;;18.00;13.07;;;;;;;28.21;84.48;100017.00;5024117;28;20036;-56
2023/08/23 01:06:27;;;;;;;15.67;12.53;;;;;;;28.29;85.11;100023.34;5014924;28;20406;-56
2023/08/23 01:09:08;;;;;;;17.17;12.87;;;;;;;28.25;83.00;100024.63;5018412;28;20537;-56
2023/08/23 01:11:47;;;;;;;14.43;12.37;;;;;;;28.33;83.48;100022.09;5028380;28;20075;-56
2023/08/23 01:14:24;;;;;;;15.50;12.48;;;;;;;28.26;83.33;100031.72;5017669;28;20056;-56
2023/08/23 01:16:55;;;;;;;18.93;13.00;;;;;;;27.76;84.15;99954.03;5025059;28;20395;-55
2023/08/23 01:19:43;;;;;;;13.60;12.00;;;;;;;27.74;83.02;99947.94;5028411;28;20044;-55
2023/08/23 01:22:19;;;;;;;16.00;12.93;;;;;;;28.33;83.49;100016.72;5013359;28;20242;-56
2023/08/23 01:24:59;;;;;;;15.20;11.73;;;;;;;28.37;83.30;100028.00;5021951;28;20061;-57
2023/08/23 01:27:32;;;;;;;15.03;12.53;;;;;;;28.64;81.54;100019.16;4993699;28;20053;-58
2023/08/23 01:30:18;;;;;;;15.10;12.00;;;;;;;28.68;80.53;100025.97;4993275;28;20154;-57
2023/08/23 01:32:53;;;;;;;15.07;13.47;;;;;;;28.75;78.40;100027.03;5003470;28;20120;-58
2023/08/23 01:35:34;;;;;;;14.90;12.70;;;;;;;28.88;78.14;100020.47;5012896;28;20057;-57
2023/08/23 01:38:07;;;;;;;14.83;11.93;;;;;;;28.97;76.04;100035.72;5006213;28;20112;-58
2023/08/23 01:40:40;;;;;;;18.20;12.80;;;;;;;28.98;77.05;100032.91;5023830;28;20047;-58
2023/08/23 01:43:11;;;;;;;13.40;11.23;;;;;;;29.24;80.13;100027.66;5012452;28;20128;-58
2023/08/23 01:45:42;;;;;;;15.40;12.97;;;;;;;29.44;76.61;100027.53;5022933;28;20085;-58
2023/08/23 01:48:15;;;;;;;14.10;10.93;;;;;;;29.52;75.65;100029.47;5013112;28;20060;-58
2023/08/23 01:50:46;;;;;;;13.37;11.40;;;;;;;29.71;75.53;100026.66;5023468;28;20495;-58
2023/08/23 01:53:16;;;;;;;16.13;12.70;;;;;;;29.96;75.14;100029.56;5012869;28;20143;-58
2023/08/23 01:55:48;;;;;;;14.33;12.63;;;;;;;30.20;76.43;100040.50;5023009;28;20049;-58
2023/08/23 01:58:19;;;;;;;15.87;11.50;;;;;;;30.16;74.12;100027.53;4991532;28;20114;-58
2023/08/23 02:00:50;;;;;;;15.67;12.70;;;;;;;30.08;71.78;100021.06;5002755;28;20136;-58
2023/08/23 02:03:21;;;;;;;16.47;12.03;;;;;;;30.07;75.06;100022.06;4940067;28;2094448;-56
2023/08/23 02:05:52;;;;;;;16.43;13.07;;;;;;;30.13;76.70;100012.53;5023295;28;20048;-56
2023/08/23 02:08:23;;;;;;;17.23;12.47;;;;;;;30.38;77.59;100027.03;5013497;28;20455;-57
2023/08/23 02:10:55;;;;;;;17.83;13.07;;;;;;;30.37;76.02;100003.75;5024303;28;20064;-56
2023/08/23 02:13:26;;;;;;;18.40;13.83;;;;;;;30.62;75.44;100012.00;5024658;28;20124;-57
2023/08/23 02:15:57;;;;;;;13.97;12.57;;;;;;;30.52;74.63;99991.38;5014112;28;20420;-57
2023/08/23 02:18:28;;;;;;;20.27;13.83;;;;;;;30.70;74.67;99987.75;5022198;28;20041;-58
2023/08/23 02:21:00;;;;;;;15.40;12.83;;;;;;;31.04;74.57;100025.53;5013172;28;20371;-58
2023/08/23 02:23:30;;;;;;;17.70;13.00;;;;;;;30.97;72.74;100010.16;5023497;28;20073;-57
2023/08/23 02:26:03;;;;;;;13.97;11.70;;;;;;;30.76;71.99;100014.09;5013545;28;20049;-58
2023/08/23 02:28:34;;;;;;;15.03;11.47;;;;;;;30.73;72.39;100019.81;5024263;28;20080;-57
2023/08/23 02:31:05;;;;;;;14.23;12.20;;;;;;;30.66;73.01;100007.97;5014315;28;20048;-57
2023/08/23 02:33:36;;;;;;;12.23;11.03;;;;;;;30.85;72.39;100018.56;5023245;28;20081;-57
2023/08/23 02:36:06;;;;;;;12.43;10.77;;;;;;;30.76;71.33;99997.91;5013823;28;20052;-57
2023/08/23 02:38:37;;;;;;;10.97;9.70;;;;;;;30.92;70.00;100019.56;5021696;28;20071;-57
2023/08/23 02:41:09;;;;;;;14.93;11.70;;;;;;;30.77;69.40;100026.56;5012954;28;20033;-58
2023/08/23 02:43:43;;;;;;;13.87;11.20;;;;;;;30.57;70.16;100030.50;5023926;28;20127;-57
2023/08/23 02:46:13;;;;;;;15.70;11.47;;;;;;;30.51;71.71;100022.06;5013189;28;20267;-58
2023/08/23 02:48:44;;;;;;;13.40;11.77;;;;;;;30.47;70.83;100026.06;5020827;28;20388;-57
2023/08/23 02:51:15;;;;;;;15.77;12.00;;;;;;;30.42;72.45;100023.00;5013781;28;20063;-57
2023/08/23 02:53:45;;;;;;;14.97;11.10;;;;;;;30.41;72.36;100021.31;5007673;28;20057;-57
2023/08/23 02:56:17;;;;;;;17.57;11.67;;;;;;;30.38;73.68;100026.16;4993802;28;20072;-58
2023/08/23 02:58:48;;;;;;;11.43;10.00;;;;;;;30.39;70.50;100019.78;5003481;28;20396;-57
2023/08/23 03:01:19;;;;;;;11.10;9.77;;;;;;;30.56;70.12;100018.03;4992948;28;20045;-57
2023/08/23 03:03:50;;;;;;;14.30;10.73;;;;;;;30.99;69.81;100024.31;5019156;28;20419;-59
2023/08/23 03:06:21;;;;;;;20.90;10.23;;;;;;;31.26;69.22;100010.56;5001230;28;20053;-58
2023/08/23 03:08:51;;;;;;;12.70;10.10;;;;;;;31.54;66.87;100018.41;5002724;28;20099;-58
2023/08/23 03:11:24;;;;;;;11.70;9.77;;;;;;;31.49;65.63;99996.47;4992615;28;20452;-58
2023/08/23 03:13:54;;;;;;;13.73;10.37;;;;;;;31.56;65.32;99997.50;5001309;28;20489;-57
2023/08/23 03:16:28;;;;;;;14.27;10.73;;;;;;;31.59;65.58;100016.06;5015560;28;20136;-58
2023/08/23 03:18:59;;;;;;;14.93;10.37;;;;;;;31.46;63.83;100021.94;5012773;28;20075;-57
2023/08/23 03:21:30;;;;;;;13.60;10.13;;;;;;;31.24;63.91;100038.75;5022509;28;20057;-57
2023/08/23 03:24:01;;;;;;;15.57;10.33;;;;;;;31.18;65.39;100045.66;5012635;28;20433;-58
2023/08/23 03:26:33;;;;;;;13.47;10.03;;;;;;;31.22;65.84;100041.59;5022366;28;20430;-57
2023/08/23 03:29:03;;;;;;;13.03;9.17;;;;;;;31.16;64.38;100048.50;5011298;28;20057;-57
2023/08/23 03:31:34;;;;;;;13.20;9.90;;;;;;;31.30;63.67;100047.03;5022758;28;20407;-57
2023/08/23 03:34:05;;;;;;;14.00;10.80;;;;;;;31.57;65.20;100051.31;5013043;28;20139;-58
2023/08/23 03:36:35;;;;;;;11.73;9.57;;;;;;;31.68;64.82;100047.47;5022196;28;20167;-58
2023/08/23 03:39:06;;;;;;;13.57;10.07;;;;;;;31.70;64.49;100045.47;5011110;28;20057;-58
2023/08/23 03:41:38;;;;;;;11.57;9.20;;;;;;;31.86;63.48;100059.97;5022220;28;20037;-58
2023/08/23 03:44:09;;;;;;;12.07;8.90;;;;;;;32.05;62.88;100067.75;5012488;28;20169;-57
2023/08/23 03:46:40;;;;;;;16.23;9.47;;;;;;;32.06;62.99;100064.06;5023336;28;20064;-58
2023/08/23 03:49:10;;;;;;;15.83;10.30;;;;;;;32.15;63.19;100073.88;5011614;28;20095;-59
2023/08/23 03:51:41;;;;;;;21.67;11.13;;;;;;;32.07;63.32;100073.84;5021886;28;20053;-57
2023/08/23 03:54:11;;;;;;;14.90;10.97;;;;;;;32.00;62.55;100067.44;5011558;28;20052;-57
2023/08/23 03:56:43;;;;;;;13.33;10.83;;;;;;;32.08;62.89;100072.84;5021862;28;20076;-58
2023/08/23 03:59:14;;;;;;;13.63;11.10;;;;;;;32.22;62.61;100077.56;5012998;28;20499;-58
2023/08/23 04:01:46;;;;;;;13.67;10.30;;;;;;;32.31;62.29;100073.00;5022247;28;20076;-58
2023/08/23 04:04:17;;;;;;;13.27;10.50;;;;;;;32.37;63.51;100084.97;5011623;28;20488;-59
2023/08/23 04:06:48;;;;;;;14.57;12.37;;;;;;;32.46;62.80;100089.38;5021849;28;20053;-58
2023/08/23 04:09:19;;;;;;;14.50;12.30;;;;;;;32.45;62.07;100076.84;4992795;28;20049;-58
2023/08/23 04:11:51;;;;;;;20.37;12.67;;;;;;;32.53;63.25;100076.06;5001763;28;20080;-57
2023/08/23 04:14:22;;;;;;;13.73;11.80;;;;;;;32.56;62.31;100073.84;4994444;28;20080;-57
2023/08/23 04:16:52;;;;;;;16.77;12.10;;;;;;;32.54;62.44;100078.56;5022514;28;20446;-59
2023/08/23 04:19:23;;;;;;;13.47;12.07;;;;;;;32.47;62.51;100080.22;5011390;28;20110;-58
2023/08/23 04:21:53;;;;;;;14.27;10.93;;;;;;;32.35;61.48;100082.47;5021756;28;20414;-59
2023/08/23 04:24:24;;;;;;;13.37;11.50;;;;;;;32.27;62.83;100074.34;4991029;28;20041;-58
2023/08/23 04:26:55;;;;;;;13.17;11.83;;;;;;;32.25;62.99;100076.38;5000393;28;20072;-58
2023/08/23 04:29:26;;;;;;;12.40;11.10;;;;;;;32.17;62.95;100085.34;5001397;28;20052;-59
2023/08/23 04:31:56;;;;;;;13.30;12.00;;;;;;;32.04;62.96;100078.75;4991895;28;20136;-58
2023/08/23 04:34:27;;;;;;;13.20;11.80;;;;;;;32.07;64.30;100084.66;5001571;28;20115;-58
2023/08/23 04:36:58;;;;;;;13.70;12.30;;;;;;;32.11;63.07;100082.47;4991773;28;20073;-58
2023/08/23 04:39:28;;;;;;;15.23;12.63;;;;;;;31.95;64.02;100075.19;5001641;28;20041;-58
2023/08/23 04:42:00;;;;;;;14.67;13.17;;;;;;;31.95;63.86;100070.66;5000583;28;20080;-59
2023/08/23 04:44:32;;;;;;;15.83;12.97;;;;;;;31.96;64.19;100077.75;5021752;28;20051;-58
2023/08/23 04:47:03;;;;;;;18.60;13.60;;;;;;;31.85;64.93;100079.88;5011171;28;20052;-56
2023/08/23 04:49:34;;;;;;;19.90;14.53;;;;;;;31.81;65.61;100077.53;5021578;28;20049;-57
2023/08/23 04:52:04;;;;;;;15.30;13.53;;;;;;;31.81;64.34;100074.00;5012162;28;20047;-58
2023/08/23 04:54:36;;;;;;;17.80;15.70;;;;;;;31.86;65.29;100081.59;5021090;28;20537;-58
2023/08/23 04:57:09;;;;;;;15.03;13.03;;;;;;;31.84;64.13;100067.41;5011486;28;20472;-58
2023/08/23 04:59:39;;;;;;;17.60;15.10;;;;;;;31.92;64.78;100073.66;5020260;28;20397;-58
2023/08/23 05:02:10;;;;;;;16.53;13.80;;;;;;;31.86;63.76;100081.59;5009957;28;20067;-58
2023/08/23 05:04:41;;;;;;;17.63;15.13;;;;;;;31.89;64.08;100086.66;5021501;28;20179;-58
2023/08/23 05:07:11;;;;;;;25.67;14.67;;;;;;;31.84;65.09;100086.31;5010601;28;20140;-58
2023/08/23 05:09:42;;;;;;;18.60;15.30;;;;;;;31.90;66.02;100088.34;5020587;28;20518;-58
2023/08/23 05:12:14;;;;;;;16.27;14.57;;;;;;;31.80;63.93;100094.75;5011388;28;20060;-57
2023/08/23 05:14:45;;;;;;;19.57;15.90;;;;;;;31.63;64.74;100090.34;5021002;28;20653;-59
2023/08/23 05:17:17;;;;;;;16.67;14.67;;;;;;;31.64;66.05;100086.63;5011611;28;20137;-57
2023/08/23 05:19:47;;;;;;;18.77;16.77;;;;;;;31.64;65.77;100096.59;5021440;28;20049;-58
2023/08/23 05:22:18;;;;;;;18.20;16.30;;;;;;;31.57;66.81;100091.00;5011018;28;20053;-58
2023/08/23 05:24:48;;;;;;;18.93;16.97;;;;;;;31.43;66.67;100088.91;5016977;28;20085;-58
2023/08/23 05:27:21;;;;;;;17.80;16.00;;;;;;;31.35;68.03;100090.59;5010169;28;20254;-58
2023/08/23 05:29:52;;;;;;;17.83;16.03;;;;;;;31.28;66.84;100094.09;5020545;28;20053;-58
2023/08/23 05:32:23;;;;;;;20.50;14.83;;;;;;;31.26;68.05;100096.94;5010224;28;20045;-58
2023/08/23 05:34:54;;;;;;;20.63;17.43;;;;;;;31.23;67.96;100089.19;5019991;28;20053;-57
2023/08/23 05:37:24;;;;;;;19.27;16.57;;;;;;;31.27;67.66;100104.03;5020299;28;20061;-58
2023/08/23 05:39:55;;;;;;;20.30;17.47;;;;;;;31.46;68.05;100107.50;5016645;28;20550;-58
2023/08/23 05:42:27;;;;;;;18.60;16.47;;;;;;;31.44;67.34;100098.72;5020662;28;20518;-58
2023/08/23 05:44:58;;;;;;;25.63;19.33;;;;;;;31.46;68.68;100096.72;5010257;28;20472;-58
2023/08/23 05:47:29;;;;;;;20.30;18.17;;;;;;;31.40;68.30;100102.75;5020530;28;20640;-58
2023/08/23 05:50:00;;;;;;;19.97;17.90;;;;;;;31.41;67.52;100104.47;5010398;28;20075;-58
2023/08/23 05:52:31;;;;;;;23.33;18.27;;;;;;;31.38;67.64;100101.06;5022708;28;20534;-58
2023/08/23 05:55:02;;;;;;;24.13;18.73;;;;;;;31.47;68.54;100104.63;5014438;28;20057;-58
2023/08/23 05:57:34;;;;;;;21.30;19.10;;;;;;;31.46;68.09;100102.13;5023741;28;20272;-57
2023/08/23 06:00:05;;;;;;;21.63;18.50;;;;;;;31.43;69.01;100099.72;5014273;28;20048;-57
2023/08/23 06:02:36;;;;;;;20.33;18.20;;;;;;;31.36;69.24;100108.47;5023862;28;20060;-57
2023/08/23 06:05:10;;;;;;;20.97;18.73;;;;;;;31.20;69.57;100113.78;5013603;28;20468;-58
2023/08/23 06:07:41;;;;;;;20.77;18.03;;;;;;;31.04;69.97;100108.31;5025018;28;20151;-58
2023/08/23 06:10:12;;;;;;;21.80;18.83;;;;;;;30.80;69.74;100117.94;5014374;28;20756;-57
2023/08/23 06:12:44;;;;;;;21.93;19.03;;;;;;;30.56;70.22;100125.91;5023940;28;20118;-58
2023/08/23 06:15:15;;;;;;;23.60;21.10;;;;;;;30.40;72.17;100122.03;5013886;28;20129;-58
2023/08/23 06:17:46;;;;;;;24.73;19.43;;;;;;;30.24;72.12;100122.78;5023143;28;20132;-58
2023/08/23 06:20:18;;;;;;;22.73;20.17;;;;;;;30.19;72.94;100130.44;5013106;28;20061;-57
2023/08/23 06:22:48;;;;;;;21.07;18.90;;;;;;;30.15;74.07;100128.22;5024658;28;20047;-57
2023/08/23 06:25:24;;;;;;;24.23;19.73;;;;;;;30.05;74.16;100122.91;5005147;28;20296;-58
2023/08/23 06:27:56;;;;;;;23.97;19.63;;;;;;;30.00;74.11;100136.84;5018847;28;20485;-57
2023/08/23 06:30:27;;;;;;;24.47;20.23;;;;;;;29.91;75.30;100143.16;5022879;28;20448;-57
2023/08/23 06:32:57;;;;;;;20.17;18.00;;;;;;;29.75;75.19;100126.81;5014097;28;20543;-58
2023/08/23 06:35:28;;;;;;;20.63;18.43;;;;;;;29.76;76.01;100145.53;5023498;28;20064;-58
2023/08/23 06:37:59;;;;;;;23.67;18.73;;;;;;;29.61;76.02;100129.00;5012955;28;20063;-57
2023/08/23 06:40:29;;;;;;;22.87;18.60;;;;;;;29.66;76.81;100150.97;5023710;28;20053;-57
2023/08/23 06:43:01;;;;;;;24.63;18.30;;;;;;;29.56;77.12;100160.94;4996749;28;20111;-57
2023/08/23 06:45:34;;;;;;;21.97;18.03;;;;;;;29.49;77.84;100157.13;5017286;28;20140;-58
2023/08/23 06:48:05;;;;;;;20.27;17.80;;;;;;;29.40;78.05;100166.94;5013380;28;20096;-58
2023/08/23 06:50:37;;;;;;;19.00;17.00;;;;;;;29.38;78.25;100160.88;5023226;28;20049;-58
2023/08/23 06:53:08;;;;;;;18.27;16.27;;;;;;;29.46;79.71;100170.91;5013033;28;20170;-57
2023/08/23 06:55:41;;;;;;;21.70;17.00;;;;;;;29.18;78.11;100130.53;5024146;28;20079;-58
2023/08/23 06:58:15;;;;;;;20.03;17.13;;;;;;;29.44;78.41;100167.50;5012842;28;20472;-56
2023/08/23 07:00:46;;;;;;;21.03;15.63;;;;;;;29.56;77.92;100170.84;5022707;28;20045;-58
2023/08/23 07:03:16;;;;;;;22.27;15.80;;;;;;;29.79;78.14;100172.16;5012396;28;20368;-58
2023/08/23 07:05:47;;;;;;;20.87;15.07;;;;;;;29.96;76.79;100167.78;5022941;28;20463;-58
2023/08/23 07:08:18;;;;;;;19.93;14.00;;;;;;;30.01;75.92;100176.25;5013325;28;20128;-57
2023/08/23 07:10:49;;;;;;;17.03;14.23;;;;;;;30.06;75.97;100173.94;5023675;28;20106;-58
2023/08/23 07:13:21;;;;;;;19.80;14.93;;;;;;;29.99;75.93;100155.88;5012659;28;20049;-58
2023/08/23 07:15:52;;;;;;;20.83;16.07;;;;;;;30.01;75.63;100162.78;5022164;28;20037;-58
2023/08/23 07:18:22;;;;;;;16.90;14.23;;;;;;;30.01;76.06;100160.09;5012562;28;20134;-57
2023/08/23 07:20:53;;;;;;;19.47;14.63;;;;;;;30.10;75.84;100164.56;5022353;28;20045;-58
2023/08/23 07:23:24;;;;;;;15.83;14.07;;;;;;;30.07;76.86;100148.69;5011841;28;20107;-58
2023/08/23 07:25:55;;;;;;;18.63;14.40;;;;;;;30.18;77.53;100150.31;5018912;28;20521;-57
2023/08/23 07:28:29;;;;;;;22.97;14.77;;;;;;;30.03;76.24;100131.16;5022336;28;20127;-58
2023/08/23 07:31:00;;;;;;;19.80;13.97;;;;;;;29.98;76.72;100164.94;5011779;28;20065;-58
2023/08/23 07:33:31;;;;;;;19.27;14.47;;;;;;;29.97;77.33;100153.31;5022002;28;20060;-58
2023/08/23 07:36:03;;;;;;;16.40;13.50;;;;;;;30.02;78.13;100167.16;5012398;28;20140;-58
2023/08/23 07:38:34;;;;;;;17.60;15.03;;;;;;;30.06;77.18;100170.41;5017796;28;20087;-58
2023/08/23 07:41:05;;;;;;;15.93;13.83;;;;;;;29.93;77.21;100151.06;5002735;28;20704;-57
2023/08/23 07:43:38;;;;;;;16.33;13.73;;;;;;;30.09;76.98;100173.63;5022199;28;20049;-57
2023/08/23 07:46:09;;;;;;;18.00;14.53;;;;;;;30.10;76.67;100159.19;5011926;28;20106;-58
2023/08/23 07:48:41;;;;;;;17.43;12.87;;;;;;;30.10;76.44;100159.19;5021976;28;20364;-58
2023/08/23 07:51:11;;;;;;;15.63;12.57;;;;;;;29.80;75.87;100127.22;5013191;28;20049;-58
2023/08/23 07:53:43;;;;;;;13.23;11.23;;;;;;;29.77;75.76;100162.53;5022060;28;20490;-59
2023/08/23 07:56:14;;;;;;;16.60;11.93;;;;;;;29.67;77.07;100162.59;5011984;28;20149;-61
2023/08/23 07:58:47;;;;;;;15.23;11.97;;;;;;;29.64;78.33;100152.94;5021921;28;20452;-56
2023/08/23 08:01:18;;;;;;;16.30;12.77;;;;;;;29.71;78.60;100141.59;5011437;28;20148;-57
2023/08/23 08:03:48;;;;;;;15.57;12.03;;;;;;;29.72;79.07;100143.28;5022036;28;20041;-57
2023/08/23 08:06:19;;;;;;;16.40;11.70;;;;;;;29.75;79.44;100142.97;5011784;28;20365;-57
2023/08/23 08:08:50;;;;;;;13.97;11.77;;;;;;;29.80;78.77;100146.06;5021094;28;20474;-58
2023/08/23 08:11:21;;;;;;;13.47;11.67;;;;;;;29.77;78.51;100157.16;5011334;28;20132;-62
2023/08/23 08:13:53;;;;;;;14.40;11.30;;;;;;;29.75;78.63;100145.66;5022303;28;20048;-57
2023/08/23 08:16:24;;;;;;;12.77;10.90;;;;;;;29.61;77.70;100142.47;4990667;28;20053;-56
2023/08/23 08:18:54;;;;;;;15.03;11.50;;;;;;;29.12;78.61;100053.09;4998610;28;20255;-58
2023/08/23 08:21:25;;;;;;;15.97;12.63;;;;;;;29.70;79.36;100140.72;5021501;28;20084;-57
2023/08/23 08:23:57;;;;;;;14.63;11.37;;;;;;;29.72;79.76;100143.28;5009619;28;20053;-57
2023/08/23 08:26:28;;;;;;;17.23;11.37;;;;;;;29.70;79.32;100129.97;5021127;28;20127;-57
2023/08/23 08:29:00;;;;;;;14.50;10.90;;;;;;;29.70;79.47;100142.59;5010954;28;20040;-57
2023/08/23 08:31:34;;;;;;;15.10;11.50;;;;;;;29.67;80.09;100147.28;5022079;28;20407;-58
2023/08/23 08:34:06;;;;;;;20.30;11.70;;;;;;;29.13;80.63;100084.38;5011125;28;20694;-58
2023/08/23 08:36:36;;;;;;;17.90;12.07;;;;;;;29.57;81.34;100151.00;5021553;28;20516;-58
2023/08/23 08:39:07;;;;;;;22.30;13.20;;;;;;;29.49;82.62;100151.75;5010908;28;20236;-58
2023/08/23 08:41:38;;;;;;;19.90;10.13;;;;;;;29.39;83.65;100164.41;5021283;28;20571;-58
2023/08/23 08:44:12;;;;;;;16.33;10.20;;;;;;;29.18;84.52;100173.56;5011622;28;20063;-57
2023/08/23 08:46:43;;;;;;;16.77;9.20;;;;;;;28.90;84.91;100163.72;5021250;28;20162;-59
2023/08/23 08:49:13;;;;;;;11.30;8.43;;;;;;;28.74;85.47;100170.53;5011295;28;20061;-59
2023/08/23 08:51:48;;;;;;;14.13;8.50;;;;;;;28.60;86.92;100173.69;5021050;28;20055;-59
2023/08/23 08:54:19;;;;;;;17.77;8.17;;;;;;;28.32;87.59;100160.09;5011120;28;20129;-57
2023/08/23 08:56:51;;;;;;;13.13;8.53;;;;;;;28.28;88.20;100164.06;5021222;28;20422;-58
2023/08/23 08:59:24;;;;;;;13.00;8.20;;;;;;;28.21;89.28;100168.31;5011165;28;20092;-58
2023/08/23 09:02:01;;;;;;;15.60;8.03;;;;;;;28.09;90.39;100169.44;5015330;28;20153;-56
2023/08/23 09:04:46;;;;;;;13.03;7.77;;;;;;;27.99;91.23;100173.94;5001209;28;20091;-55
2023/08/23 09:07:20;;;;;;;12.63;8.27;;;;;;;27.87;92.04;100181.28;5010946;28;20037;-59
2023/08/23 09:09:55;;;;;;;13.10;8.00;;;;;;;27.80;92.84;100180.94;5020837;28;20106;-59
2023/08/23 09:12:30;;;;;;;21.27;8.40;;;;;;;27.75;93.18;100180.50;4991036;28;20033;-61
2023/08/23 09:15:07;;;;;;;12.93;7.87;;;;;;;27.67;93.81;100181.19;4990503;28;20054;-57
2023/08/23 09:17:41;;;;;;;16.30;7.80;;;;;;;27.58;94.50;100181.16;5000843;28;20144;-57
2023/08/23 09:20:15;;;;;;;13.00;7.80;;;;;;;27.52;94.71;100172.66;4990315;28;20453;-57
2023/08/23 09:23:28;;;;;;;12.07;7.70;;;;;;;27.44;95.20;100159.09;5000284;28;20049;-58
2023/08/23 09:26:12;;;;;;;18.00;9.10;;;;;;;27.31;96.09;100167.38;4980755;28;20072;-58
2023/08/23 09:29:06;;;;;;;15.17;8.07;;;;;;;27.15;96.55;100171.50;5023896;28;20128;-58
2023/08/23 09:31:40;;;;;;;11.50;7.05;;;;;;;27.11;97.27;100174.47;5024881;28;20044;-58
2023/08/23 09:34:18;;;;;;;11.53;7.23;;;;;;;26.90;97.76;100149.50;5014891;28;20053;-58
2023/08/23 09:36:51;;;;;;;12.50;7.03;;;;;;;26.95;97.85;100174.09;5024797;28;20080;-57
2023/08/23 09:39:25;;;;;;;7.87;6.77;;;;;;;26.89;97.89;100198.75;5014163;28;20752;-58
2023/08/23 09:42:05;;;;;;;9.30;7.03;;;;;;;26.79;98.27;100184.44;5014230;28;20059;-58
2023/08/23 09:44:41;;;;;;;14.47;7.33;;;;;;;26.77;98.29;100181.03;5024446;28;20048;-59
2023/08/23 09:47:22;;;;;;;10.13;6.97;;;;;;;26.75;98.14;100181.16;5014308;28;20383;-58
2023/08/23 09:49:58;;;;;;;14.03;6.87;;;;;;;26.66;98.28;100180.13;5014263;28;20052;-57
2023/08/23 09:55:44;;;;;;;10.47;7.03;;;;;;;26.46;99.21;100172.91;5021132;28;20160;-55
2023/08/23 09:58:45;;;;;;;10.97;6.50;;;;;;;26.43;99.44;100194.56;5013506;28;20047;-57
2023/08/23 10:01:21;;;;;;;9.20;6.50;;;;;;;26.39;99.53;100194.00;4970103;28;20136;-57
2023/08/23 10:04:05;;;;;;;7.83;5.93;;;;;;;26.31;99.50;100179.53;4993590;28;20777;-58
2023/08/23 10:06:37;;;;;;;11.50;7.03;;;;;;;26.30;99.90;100180.50;5018165;28;20456;-57
2023/08/23 10:09:12;;;;;;;9.43;6.70;;;;;;;26.28;100.00;100187.81;5014815;28;20045;-58
2023/08/23 10:11:49;;;;;;;9.73;6.77;;;;;;;26.23;100.00;100193.56;5024073;28;20052;-56
2023/08/23 10:14:25;;;;;;;9.17;6.73;;;;;;;26.21;100.00;100196.38;5012287;28;20488;-58
2023/08/23 10:16:57;;;;;;;8.13;6.30;;;;;;;26.19;100.00;100187.63;5014948;28;20131;-58
2023/08/23 10:19:30;;;;;;;9.30;6.93;;;;;;;26.22;100.00;100203.44;5024085;28;20458;-57
2023/08/23 10:22:05;;;;;;;9.00;6.03;;;;;;;26.23;100.00;100198.91;5013224;28;20048;-57
2023/08/23 10:24:37;;;;;;;9.00;7.10;;;;;;;26.17;100.00;100202.97;5023512;28;20077;-57
2023/08/23 10:27:09;;;;;;;9.87;6.93;;;;;;;25.90;100.00;100173.09;5013506;28;20102;-58
2023/08/23 10:30:06;;;;;;;10.43;7.10;;;;;;;25.91;100.00;100174.78;5023486;28;20385;-58
2023/08/23 10:32:49;;;;;;;7.53;6.17;;;;;;;26.05;100.00;100206.66;5003340;28;20061;-57
2023/08/23 10:35:39;;;;;;;11.53;6.43;;;;;;;25.96;100.00;100196.69;5011237;28;20061;-58
2023/08/23 10:38:13;;;;;;;11.00;7.07;;;;;;;25.99;100.00;100217.88;5013098;28;20060;-58
2023/08/23 10:40:46;;;;;;;10.07;6.90;;;;;;;25.97;100.00;100215.31;5022542;28;20519;-57
2023/08/23 10:43:59;;;;;;;11.03;7.47;;;;;;;25.96;100.00;100221.66;4992649;28;20373;-57
2023/08/23 10:47:37;;;;;;;13.03;7.40;;;;;;;25.94;100.00;100226.28;5019074;28;20047;-58
2023/08/23 10:50:28;;;;;;;9.43;7.03;;;;;;;25.92;100.00;100228.22;5014068;28;20317;-58
2023/08/23 10:53:29;;;;;;;10.60;7.00;;;;;;;25.85;100.00;100231.50;5012598;28;20060;-57
2023/08/23 10:56:29;;;;;;;12.90;8.13;;;;;;;25.82;100.00;100241.47;5012550;28;20110;-57
2023/08/23 10:59:01;;;;;;;14.20;8.57;;;;;;;25.75;100.00;100247.44;5013006;28;20055;-57
2023/08/23 11:01:37;;;;;;;12.47;7.97;;;;;;;25.66;100.00;100249.03;5022893;28;20052;-57
2023/08/23 11:04:13;;;;;;;12.20;7.70;;;;;;;25.47;100.00;100232.75;5010350;28;20375;-58
2023/08/23 11:06:44;;;;;;;11.87;8.23;;;;;;;25.50;100.00;100259.25;5022848;28;20080;-57
2023/08/23 11:09:18;;;;;;;15.70;8.40;;;;;;;25.43;100.00;100252.66;5012456;28;20061;-58
2023/08/23 11:11:52;;;;;;;16.47;8.37;;;;;;;25.38;100.00;100258.38;5022033;28;20037;-56
2023/08/23 11:14:25;;;;;;;13.13;8.37;;;;;;;25.35;100.00;100256.78;5000315;28;20049;-57
2023/08/23 11:17:34;;;;;;;15.47;9.00;;;;;;;25.31;100.00;100255.34;5011411;28;20418;-57
2023/08/23 11:20:39;;;;;;;15.67;8.23;;;;;;;25.25;100.00;100254.97;4984002;28;20052;-58
2023/08/23 11:23:20;;;;;;;18.00;8.87;;;;;;;25.20;100.00;100258.00;4988723;28;20057;-58
2023/08/23 11:25:57;;;;;;;14.03;8.10;;;;;;;25.12;100.00;100265.72;5002844;28;20061;-58
2023/08/23 11:28:40;;;;;;;14.23;8.87;;;;;;;25.08;100.00;100274.94;5022296;28;20045;-58
2023/08/23 11:31:11;;;;;;;12.13;9.00;;;;;;;25.04;100.00;100276.16;5011275;28;20133;-56
2023/08/23 11:33:42;;;;;;;19.43;9.60;;;;;;;25.03;100.00;100277.13;5022765;28;20460;-57
2023/08/23 11:36:14;;;;;;;14.87;9.30;;;;;;;25.03;100.00;100277.13;5012075;28;20134;-57
2023/08/23 11:38:48;;;;;;;20.87;11.63;;;;;;;25.00;100.00;100275.53;5021944;28;20049;-57
2023/08/23 11:41:31;;;;;;;27.07;10.27;;;;;;;24.60;100.00;100208.25;5011806;28;20068;-57
2023/08/23 11:44:06;;;;;;;15.50;9.63;;;;;;;24.98;100.00;100283.66;5012610;28;20080;-55